Time;durP1;ratioP1;P1;durP2;ratioP2;P2;SDS_P1;SDS_P2;PMS_P1;PMS_P2;Temp;Humidity;BMP_temperature;BMP_pressure;BME280_temperature;BME280_humidity;BME280_pressure;Samples;Min_cycle;Max_cycle;Signal;HPM_P1;HPM_P2
2022/06/01 00:02:16;;;;;;;25.75;23.35;;;;;;;11.02;82.46;101128.19;3562289;40;20060;-64
2022/06/01 00:04:42;;;;;;;26.25;23.55;;;;;;;11.02;82.56;101131.75;3561158;40;20050;-64
2022/06/01 00:07:08;;;;;;;25.92;23.42;;;;;;;11.00;82.24;101124.72;3562372;40;20048;-64
2022/06/01 00:09:34;;;;;;;26.60;23.95;;;;;;;11.03;82.49;101122.72;3560937;40;20065;-65
2022/06/01 00:12:00;;;;;;;25.67;23.10;;;;;;;11.03;82.45;101129.91;3562391;40;20065;-64
2022/06/01 00:14:26;;;;;;;26.02;23.42;;;;;;;11.02;81.44;101138.97;3562202;40;20049;-64
2022/06/01 00:16:55;;;;;;;25.40;22.73;;;;;;;10.98;81.88;101126.66;3559845;40;20521;-64
2022/06/01 00:19:22;;;;;;;25.10;22.58;;;;;;;10.95;82.15;101133.06;3561359;40;20060;-65
2022/06/01 00:24:33;;;;;;;26.48;23.83;;;;;;;10.93;82.12;101134.97;3560773;40;20055;-64
2022/06/01 00:26:58;;;;;;;26.85;24.05;;;;;;;10.90;81.81;101133.31;3561250;40;20385;-64
2022/06/01 00:29:24;;;;;;;26.98;24.35;;;;;;;10.93;82.69;101130.47;3560021;40;20069;-64
2022/06/01 00:31:49;;;;;;;25.48;22.90;;;;;;;10.97;81.83;101135.66;3560496;40;20137;-64
2022/06/01 00:34:15;;;;;;;26.50;23.65;;;;;;;10.96;82.16;101125.88;3560621;40;20384;-63
2022/06/01 00:36:41;;;;;;;27.13;24.42;;;;;;;11.05;81.43;101131.56;3561267;40;20073;-64
2022/06/01 00:39:07;;;;;;;26.98;24.38;;;;;;;10.82;81.91;101091.72;3562980;40;20061;-63
2022/06/01 00:41:32;;;;;;;26.83;24.25;;;;;;;11.13;82.06;101131.09;3562231;40;20497;-64
2022/06/01 00:43:58;;;;;;;26.98;24.17;;;;;;;11.16;81.33;101136.31;3563054;40;20060;-64
2022/06/01 00:46:25;;;;;;;27.67;24.88;;;;;;;11.18;81.33;101134.41;3562406;40;20399;-64
2022/06/01 00:49:01;;;;;;;27.75;24.95;;;;;;;11.21;80.98;101133.34;3560602;40;20064;-65
2022/06/01 00:51:28;;;;;;;28.65;25.77;;;;;;;11.20;81.17;101129.81;3557582;40;20084;-65
2022/06/01 00:53:58;;;;;;;26.30;23.70;;;;;;;11.15;80.71;101130.06;3560191;40;20089;-64
2022/06/01 00:56:37;;;;;;;27.95;25.25;;;;;;;11.12;80.93;101134.75;3560881;40;20061;-64
2022/06/01 00:59:11;;;;;;;28.25;25.35;;;;;;;11.09;80.54;101134.94;3559650;40;20124;-63
2022/06/01 01:01:36;;;;;;;;;;;;;;;11.07;81.18;101131.50;3557968;40;20057;-65
2022/06/01 01:04:05;;;;;;;26.85;24.17;;;;;;;10.99;80.64;101125.69;3560804;40;19936;-64
2022/06/01 01:06:39;;;;;;;28.10;25.30;;;;;;;11.03;81.20;101135.31;3560605;40;20060;-64
2022/06/01 01:09:08;;;;;;;29.02;26.02;;;;;;;11.00;81.14;101141.72;3561534;40;20093;-64
2022/06/01 01:11:56;;;;;;;28.23;25.27;;;;;;;10.98;80.51;101137.41;3557008;40;20436;-64
2022/06/01 01:14:29;;;;;;;28.88;26.05;;;;;;;10.95;81.15;101138.44;3556942;40;20061;-64
2022/06/01 01:16:59;;;;;;;29.85;26.90;;;;;;;10.92;81.45;101123.34;3559783;40;20778;-64
2022/06/01 01:19:46;;;;;;;29.92;26.92;;;;;;;10.95;81.36;101126.84;3562732;40;20064;-64
2022/06/01 01:22:39;;;;;;;29.73;26.52;;;;;;;10.99;81.13;101123.00;3559145;40;20053;-64
2022/06/01 01:25:33;;;;;;;28.20;25.50;;;;;;;10.99;81.00;101121.16;3561341;40;20054;-64
2022/06/01 01:28:05;;;;;;;30.08;27.02;;;;;;;11.01;81.02;101124.66;3559903;40;20052;-64
2022/06/01 01:30:37;;;;;;;30.73;27.63;;;;;;;10.99;81.23;101118.47;3554851;40;20400;-64
2022/06/01 01:33:07;;;;;;;30.33;27.30;;;;;;;10.97;81.08;101123.06;3561184;40;20057;-63
2022/06/01 01:35:33;;;;;;;30.00;26.95;;;;;;;10.95;80.95;101118.75;3562013;40;20097;-64
2022/06/01 01:38:07;;;;;;;28.75;25.85;;;;;;;10.85;81.54;101091.53;3562715;40;20064;-64
2022/06/01 01:40:34;;;;;;;33.20;29.60;;;;;;;10.96;81.43;101112.41;3561714;40;20494;-64
2022/06/01 01:43:07;;;;;;;30.92;27.92;;;;;;;10.96;81.46;101110.59;3550637;40;20057;-64
2022/06/01 01:45:36;;;;;;;31.80;28.63;;;;;;;10.93;82.32;101124.22;3561574;40;20061;-64
2022/06/01 01:48:03;;;;;;;31.10;27.85;;;;;;;10.82;81.89;101106.03;3560435;40;20124;-65
2022/06/01 01:50:29;;;;;;;31.67;28.38;;;;;;;10.96;81.46;101126.72;3559516;40;20065;-64
2022/06/01 01:52:55;;;;;;;30.90;27.75;;;;;;;10.98;81.21;101137.41;3560930;40;20080;-64
2022/06/01 01:56:14;;;;;;;30.83;27.63;;;;;;;10.96;80.68;101128.56;3560610;40;20320;-64
2022/06/01 01:59:18;;;;;;;31.48;28.20;;;;;;;10.96;80.96;101128.56;3548380;40;20055;-64
2022/06/01 02:01:49;;;;;;;;;;;;;;;10.98;81.58;101132.03;3559720;40;20105;-64
2022/06/01 02:07:33;;;;;;;31.17;28.08;;;;;;;10.91;81.42;101132.38;3560551;40;20051;-64
2022/06/01 02:12:46;;;;;;;31.58;28.35;;;;;;;10.83;81.01;101129.28;3561300;40;20431;-62
2022/06/01 02:15:26;;;;;;;32.22;29.02;;;;;;;10.80;80.53;101126.75;3559440;40;20049;-62
2022/06/01 02:18:02;;;;;;;31.23;27.90;;;;;;;10.78;80.86;101125.09;3561634;40;20053;-62
2022/06/01 02:20:38;;;;;;;31.52;28.33;;;;;;;10.72;80.70;101120.97;3559044;40;20097;-62
2022/06/01 02:23:04;;;;;;;31.73;28.65;;;;;;;10.68;80.64;101122.09;3558332;40;20326;-61
2022/06/01 02:25:30;;;;;;;32.22;28.88;;;;;;;10.66;81.51;101126.69;3560778;40;20494;-64
2022/06/01 02:27:58;;;;;;;33.10;29.67;;;;;;;10.63;81.21;101126.88;3559511;40;20057;-64
2022/06/01 02:30:32;;;;;;;32.72;29.42;;;;;;;10.64;80.85;101125.91;3560615;40;20049;-62
2022/06/01 02:33:03;;;;;;;31.80;28.40;;;;;;;10.62;80.56;101130.50;3561676;40;20339;-62
2022/06/01 02:35:36;;;;;;;30.80;27.70;;;;;;;10.63;81.31;101126.88;3560165;40;20089;-61
2022/06/01 02:38:12;;;;;;;31.67;28.45;;;;;;;10.58;80.65;101123.56;3558608;40;20111;-61
2022/06/01 02:40:39;;;;;;;31.35;28.00;;;;;;;10.59;80.09;101119.91;3558577;40;20061;-63
2022/06/01 02:43:05;;;;;;;30.05;26.95;;;;;;;10.57;80.31;101120.03;3560530;40;20056;-63
2022/06/01 02:45:30;;;;;;;30.67;27.42;;;;;;;10.55;80.22;101123.75;3561285;40;20045;-63
2022/06/01 02:47:59;;;;;;;31.02;26.58;;;;;;;10.54;80.26;101127.41;3560507;40;20388;-62
2022/06/01 02:50:29;;;;;;;29.27;26.23;;;;;;;10.49;80.09;101116.88;3559832;40;20458;-62
2022/06/01 02:52:56;;;;;;;29.40;26.33;;;;;;;10.33;80.11;101103.44;3558385;40;20052;-64
2022/06/01 02:55:23;;;;;;;28.00;25.20;;;;;;;10.47;79.94;101126.03;3560787;40;20071;-64
2022/06/01 02:57:52;;;;;;;28.35;25.48;;;;;;;10.45;80.31;101123.41;3559877;40;20091;-62
2022/06/01 03:00:26;;;;;;;29.95;26.92;;;;;;;10.41;80.33;101122.72;3562651;40;20167;-62
2022/06/01 03:02:58;;;;;;;29.75;26.75;;;;;;;10.38;80.33;101130.94;3561256;40;20049;-62
2022/06/01 03:05:29;;;;;;;30.35;27.13;;;;;;;10.32;80.73;101117.84;3561620;40;20109;-61
2022/06/01 03:07:57;;;;;;;31.38;26.73;;;;;;;10.28;79.85;101123.50;3562200;40;20089;-62
2022/06/01 03:10:24;;;;;;;30.00;26.85;;;;;;;10.20;80.12;101127.41;3560764;40;20056;-62
2022/06/01 03:12:51;;;;;;;30.02;26.85;;;;;;;10.16;80.95;101127.69;3559703;40;20094;-61
2022/06/01 03:15:20;;;;;;;30.38;27.00;;;;;;;10.14;81.03;101133.13;3560566;40;20096;-63
2022/06/01 03:17:46;;;;;;;28.63;25.73;;;;;;;10.12;80.59;101126.13;3562295;40;20049;-62
2022/06/01 03:20:16;;;;;;;30.33;27.02;;;;;;;9.50;80.42;101032.81;3563603;40;20065;-62
2022/06/01 03:22:43;;;;;;;28.65;25.48;;;;;;;10.07;80.50;101126.38;3562083;40;20375;-62
2022/06/01 03:25:17;;;;;;;29.63;26.60;;;;;;;10.05;81.01;101122.03;3561222;40;20150;-62
2022/06/01 03:27:43;;;;;;;28.20;25.20;;;;;;;10.03;80.43;101126.63;3561424;40;20105;-62
2022/06/01 03:30:15;;;;;;;32.05;26.38;;;;;;;10.02;80.52;101127.56;3558716;40;20057;-62
2022/06/01 03:32:43;;;;;;;27.42;24.52;;;;;;;10.04;81.10;101128.38;3561998;40;20064;-63
2022/06/01 03:35:11;;;;;;;26.30;23.40;;;;;;;10.02;80.14;101127.56;3562258;40;20386;-62
2022/06/01 03:37:36;;;;;;;28.63;23.63;;;;;;;10.03;80.35;101129.31;3559913;40;20065;-63
2022/06/01 03:40:04;;;;;;;28.52;23.80;;;;;;;9.94;80.71;101101.16;3561006;40;20423;-62
2022/06/01 03:42:30;;;;;;;25.88;23.10;;;;;;;10.02;80.86;101131.13;3559184;40;20057;-63
2022/06/01 03:47:41;;;;;;;27.38;22.27;;;;;;;10.02;79.91;101122.19;3561937;40;20076;-62
2022/06/01 03:50:09;;;;;;;25.60;21.85;;;;;;;10.00;80.56;101125.84;3561564;40;20061;-62
2022/06/01 03:52:35;;;;;;;25.63;22.75;;;;;;;10.02;80.28;101127.56;3562176;40;20052;-63
2022/06/01 03:55:01;;;;;;;26.58;22.55;;;;;;;9.98;80.48;101130.41;3561871;40;20320;-64
2022/06/01 03:57:26;;;;;;;25.25;22.27;;;;;;;10.00;80.20;101127.66;3563496;40;20420;-64
2022/06/01 03:59:53;;;;;;;24.67;22.08;;;;;;;10.00;80.64;101133.91;3557178;40;20068;-64
2022/06/01 04:02:18;;;;;;;25.27;21.23;;;;;;;9.99;80.80;101132.19;3560241;40;20329;-63
2022/06/01 04:04:44;;;;;;;23.60;20.95;;;;;;;10.00;80.47;101133.03;3558834;40;20176;-64
2022/06/01 04:07:10;;;;;;;23.15;20.65;;;;;;;10.04;80.46;101139.97;3559056;40;20065;-64
2022/06/01 04:09:36;;;;;;;22.77;20.38;;;;;;;10.04;79.58;101136.41;3560981;40;20057;-64
2022/06/01 04:12:01;;;;;;;25.23;20.50;;;;;;;10.05;80.22;101130.94;3564354;40;20052;-63
2022/06/01 04:14:27;;;;;;;25.08;20.95;;;;;;;10.06;80.49;101127.34;3563311;40;20064;-64
2022/06/01 04:16:53;;;;;;;24.00;19.65;;;;;;;10.07;80.05;101133.56;3561963;40;20302;-63
2022/06/01 04:19:19;;;;;;;28.60;20.23;;;;;;;10.07;79.58;101134.44;3558933;40;20060;-63
2022/06/01 04:21:51;;;;;;;22.20;19.83;;;;;;;10.08;80.68;101136.16;3559497;40;20065;-63
2022/06/01 04:24:26;;;;;;;26.15;20.20;;;;;;;10.10;80.79;101136.09;3560888;40;20053;-64
2022/06/01 04:26:51;;;;;;;23.88;19.08;;;;;;;10.11;80.24;101135.13;3559705;40;20175;-64
2022/06/01 04:29:17;;;;;;;24.70;20.55;;;;;;;10.13;80.14;101143.97;3560817;40;20304;-63
2022/06/01 04:31:45;;;;;;;23.60;18.92;;;;;;;10.16;79.77;101143.81;3559920;40;20065;-63
2022/06/01 04:34:10;;;;;;;22.58;19.35;;;;;;;10.16;80.80;101143.81;3560003;40;20087;-63
2022/06/01 04:36:37;;;;;;;21.40;18.33;;;;;;;10.16;80.85;101141.13;3547607;40;20057;-63
2022/06/01 04:39:03;;;;;;;23.02;19.90;;;;;;;10.19;80.16;101140.97;3560337;40;20049;-64
2022/06/01 04:41:28;;;;;;;23.98;19.42;;;;;;;10.21;80.50;101147.09;3559508;40;20085;-63
2022/06/01 04:43:54;;;;;;;22.50;19.08;;;;;;;10.23;80.92;101145.19;3558111;40;20432;-63
2022/06/01 04:46:20;;;;;;;23.42;19.45;;;;;;;10.24;80.06;101152.28;3558922;40;20061;-63
2022/06/01 04:48:45;;;;;;;23.52;18.60;;;;;;;10.25;80.41;101150.50;3559266;40;20053;-64
2022/06/01 04:51:11;;;;;;;23.33;18.90;;;;;;;10.28;80.41;101147.69;3557466;40;20056;-64
2022/06/01 04:53:38;;;;;;;22.88;18.15;;;;;;;10.29;80.40;101146.72;3560084;40;20045;-66
2022/06/01 04:56:04;;;;;;;21.08;18.13;;;;;;;10.32;81.26;101155.47;3557698;40;20100;-65
2022/06/01 04:58:29;;;;;;;21.95;17.40;;;;;;;10.38;80.99;101148.91;3559379;40;20045;-65
2022/06/01 05:00:56;;;;;;;22.15;17.10;;;;;;;10.44;80.66;101159.31;3558334;40;20690;-65
2022/06/01 05:03:22;;;;;;;22.48;16.45;;;;;;;10.49;79.92;101161.72;3558143;40;20080;-64
2022/06/01 05:05:47;;;;;;;17.73;15.82;;;;;;;10.51;79.68;101159.81;3560358;40;20060;-64
2022/06/01 05:08:14;;;;;;;19.20;14.70;;;;;;;10.55;80.05;101173.00;3557315;40;20385;-65
2022/06/01 05:10:41;;;;;;;18.08;15.02;;;;;;;10.58;79.23;101162.06;3557852;40;20097;-65
2022/06/01 05:13:09;;;;;;;17.85;14.93;;;;;;;10.60;79.65;101153.94;3558754;40;20384;-65
2022/06/01 05:15:47;;;;;;;16.88;14.20;;;;;;;10.59;79.25;101153.06;3557481;40;20134;-64
2022/06/01 05:18:13;;;;;;;19.02;14.55;;;;;;;10.59;79.93;101152.19;3560043;40;20105;-65
2022/06/01 05:20:39;;;;;;;18.50;14.20;;;;;;;10.59;79.78;101152.19;3557955;40;20085;-64
2022/06/01 05:23:05;;;;;;;18.40;14.32;;;;;;;10.65;80.21;101157.22;3558552;40;20055;-65
2022/06/01 05:25:30;;;;;;;15.98;12.43;;;;;;;10.68;80.32;101151.66;3558866;40;20049;-64
2022/06/01 05:27:56;;;;;;;19.50;14.27;;;;;;;10.73;79.80;101148.72;3558976;40;20072;-64
2022/06/01 05:30:22;;;;;;;15.63;13.60;;;;;;;10.80;79.62;101150.97;3559901;40;20304;-64
2022/06/01 05:32:47;;;;;;;15.88;13.23;;;;;;;10.88;80.16;101164.84;3556946;40;20064;-65
2022/06/01 05:35:13;;;;;;;15.60;13.00;;;;;;;10.96;79.85;101155.44;3560878;40;20331;-65
2022/06/01 05:37:38;;;;;;;17.63;13.02;;;;;;;11.02;79.71;101155.09;3560089;40;20108;-65
2022/06/01 05:40:05;;;;;;;17.10;13.20;;;;;;;11.08;79.35;101160.97;3559269;40;20061;-65
2022/06/01 05:42:30;;;;;;;18.17;14.13;;;;;;;11.15;79.51;101156.09;3560611;40;20053;-65
2022/06/01 05:44:56;;;;;;;16.98;14.32;;;;;;;11.22;80.09;101138.63;3561397;40;20052;-65
2022/06/01 05:47:22;;;;;;;19.73;13.85;;;;;;;11.34;80.28;101156.75;3563644;40;20057;-64
2022/06/01 05:49:48;;;;;;;18.10;13.02;;;;;;;11.42;80.17;101158.09;3563927;40;20061;-65
2022/06/01 05:52:18;;;;;;;17.13;13.75;;;;;;;11.55;80.14;101161.81;3561712;40;20049;-65
2022/06/01 05:54:45;;;;;;;18.70;13.40;;;;;;;11.71;80.31;101168.00;3564486;40;20327;-64
2022/06/01 05:57:11;;;;;;;16.17;13.95;;;;;;;11.90;79.27;101164.22;3562124;40;20075;-65
2022/06/01 05:59:37;;;;;;;19.85;12.95;;;;;;;12.07;78.47;101167.56;3564116;40;20716;-65
2022/06/01 06:02:03;;;;;;;16.83;13.15;;;;;;;12.20;78.24;101166.78;3561517;40;20049;-65
2022/06/01 06:04:28;;;;;;;16.85;12.65;;;;;;;12.32;78.42;101161.50;3563468;40;20049;-64
2022/06/01 06:06:56;;;;;;;19.23;13.02;;;;;;;12.43;77.82;101157.22;3561660;40;20069;-64
2022/06/01 06:09:24;;;;;;;18.58;12.18;;;;;;;12.59;77.07;101163.41;3561871;40;20115;-64
2022/06/01 06:11:52;;;;;;;16.38;12.82;;;;;;;12.76;77.24;101168.53;3560301;40;20060;-65
2022/06/01 06:14:20;;;;;;;20.15;12.73;;;;;;;12.23;77.11;101048.88;3560837;40;20077;-65
2022/06/01 06:16:46;;;;;;;22.02;12.45;;;;;;;12.76;75.94;101128.06;3549114;40;20414;-65
2022/06/01 06:19:16;;;;;;;15.23;11.88;;;;;;;13.07;75.82;101169.22;3559744;40;20053;-65
2022/06/01 06:21:42;;;;;;;18.33;12.90;;;;;;;13.17;76.48;101170.31;3559448;40;20423;-65
2022/06/01 06:24:13;;;;;;;17.73;11.13;;;;;;;13.27;76.14;101175.13;3557633;40;20059;-65
2022/06/01 06:26:42;;;;;;;16.35;12.13;;;;;;;13.37;75.95;101160.03;3558575;40;20399;-65
2022/06/01 06:29:11;;;;;;;15.98;11.60;;;;;;;13.56;74.57;101179.41;3559363;40;20383;-64
2022/06/01 06:31:38;;;;;;;13.85;11.05;;;;;;;13.63;74.06;101183.41;3558553;40;21597;-64
2022/06/01 06:34:05;;;;;;;14.13;10.80;;;;;;;13.70;74.01;101189.25;3560505;40;20075;-66
2022/06/01 06:36:31;;;;;;;13.57;10.82;;;;;;;13.85;74.60;101195.44;3557963;40;20053;-64
2022/06/01 06:38:56;;;;;;;15.13;11.20;;;;;;;13.96;73.72;101211.78;3557000;40;20066;-65
2022/06/01 06:41:23;;;;;;;13.80;10.10;;;;;;;14.03;72.92;101206.81;3558102;40;20443;-66
2022/06/01 06:43:50;;;;;;;13.90;10.63;;;;;;;14.19;72.80;101214.72;3558584;40;20061;-65
2022/06/01 06:46:21;;;;;;;15.35;10.65;;;;;;;14.47;73.19;101221.72;3560113;40;20065;-65
2022/06/01 06:48:49;;;;;;;11.45;9.57;;;;;;;14.59;71.59;101219.03;3558413;40;20108;-64
2022/06/01 06:51:17;;;;;;;13.65;9.27;;;;;;;14.64;70.44;101213.28;3558728;40;20104;-65
2022/06/01 06:53:44;;;;;;;13.95;9.50;;;;;;;14.71;69.90;101219.09;3557237;40;20088;-64
2022/06/01 06:56:11;;;;;;;11.25;8.57;;;;;;;14.77;69.74;101224.06;3558641;40;20148;-65
2022/06/01 06:58:37;;;;;;;15.65;8.65;;;;;;;14.95;69.73;101216.44;3558412;40;20075;-65
2022/06/01 07:01:03;;;;;;;12.80;9.23;;;;;;;15.18;69.97;101222.84;3559499;40;20679;-64
2022/06/01 07:03:29;;;;;;;11.07;8.75;;;;;;;15.26;67.19;101225.84;3557582;40;21235;-65
2022/06/01 07:06:11;;;;;;;12.07;8.80;;;;;;;15.33;67.43;101227.97;3555898;40;20061;-65
2022/06/01 07:08:48;;;;;;;15.23;8.90;;;;;;;15.39;66.87;101229.38;3557650;40;20089;-65
2022/06/01 07:11:16;;;;;;;11.73;8.95;;;;;;;15.44;66.40;101232.56;3557907;40;20416;-64
2022/06/01 07:13:43;;;;;;;10.73;8.45;;;;;;;15.45;66.74;101219.91;3555430;40;20439;-64
2022/06/01 07:16:20;;;;;;;12.73;8.05;;;;;;;15.56;66.31;101231.63;3558062;40;20053;-64
2022/06/01 07:18:49;;;;;;;12.55;8.70;;;;;;;15.73;66.42;101224.09;3557975;40;20384;-66
2022/06/01 07:21:18;;;;;;;10.63;7.63;;;;;;;15.92;65.40;101228.94;3558767;40;20430;-65
2022/06/01 07:23:45;;;;;;;9.85;7.93;;;;;;;16.07;64.23;101232.31;3558792;40;20071;-65
2022/06/01 07:26:26;;;;;;;10.90;7.63;;;;;;;16.22;64.36;101229.25;3558906;40;20056;-65
2022/06/01 07:28:53;;;;;;;9.25;7.25;;;;;;;15.97;63.22;101192.34;3555759;40;20081;-65
2022/06/01 07:31:20;;;;;;;9.82;6.82;;;;;;;16.32;63.43;101223.97;3557757;40;20076;-66
2022/06/01 07:33:46;;;;;;;9.68;6.30;;;;;;;16.55;61.40;101232.09;3557015;40;20049;-65
2022/06/01 07:36:16;;;;;;;11.93;5.90;;;;;;;16.79;62.59;101268.16;3559167;40;20049;-65
2022/06/01 07:44:27;;;;;;;9.20;5.35;;;;;;;17.14;59.53;101232.69;3559294;40;20505;-64
2022/06/01 07:46:52;;;;;;;5.35;4.85;;;;;;;17.05;57.01;101202.72;3559185;40;20064;-65
2022/06/01 07:49:19;;;;;;;7.30;4.60;;;;;;;17.48;58.51;101226.28;3560868;40;20384;-65
2022/06/01 07:51:47;;;;;;;9.23;5.95;;;;;;;17.65;58.32;101228.44;3558567;40;20061;-64
2022/06/01 07:54:14;;;;;;;8.98;6.80;;;;;;;17.73;58.76;101231.38;3560651;40;20049;-65
2022/06/01 07:56:40;;;;;;;8.95;4.53;;;;;;;17.69;57.01;101232.59;3558420;40;20489;-64
2022/06/01 07:59:06;;;;;;;5.25;4.75;;;;;;;17.77;57.18;101230.13;3562343;40;20061;-64
2022/06/01 08:01:36;;;;;;;8.35;5.28;;;;;;;17.91;55.87;101219.91;3561251;40;20101;-64
2022/06/01 08:04:05;;;;;;;8.75;5.57;;;;;;;17.90;57.35;101231.78;3560929;40;20107;-64
2022/06/01 08:06:34;;;;;;;4.82;3.97;;;;;;;17.97;55.79;101227.53;3560901;40;20058;-64
2022/06/01 08:09:01;;;;;;;7.03;4.38;;;;;;;17.97;55.51;101222.97;3560110;40;20072;-64
2022/06/01 08:14:13;;;;;;;4.95;3.60;;;;;;;17.56;54.60;101237.34;3559747;40;20115;-64
2022/06/01 08:16:44;;;;;;;4.93;4.13;;;;;;;17.66;55.09;101235.56;3556891;40;21630;-64
2022/06/01 08:19:12;;;;;;;6.65;4.47;;;;;;;17.62;54.65;101236.84;3561263;40;20045;-64
2022/06/01 08:21:38;;;;;;;4.85;4.20;;;;;;;17.89;54.66;101238.22;3560005;40;20065;-64
2022/06/01 08:24:06;;;;;;;4.88;3.60;;;;;;;18.21;53.55;101247.19;3560170;40;22083;-63
2022/06/01 08:26:34;;;;;;;4.03;3.70;;;;;;;18.30;52.46;101229.19;3560624;40;20041;-64
2022/06/01 08:29:02;;;;;;;5.30;3.83;;;;;;;18.52;52.37;101239.91;3559154;40;20057;-65
2022/06/01 08:31:30;;;;;;;5.60;3.75;;;;;;;18.58;52.27;101224.84;3559233;40;20703;-64
2022/06/01 08:33:57;;;;;;;3.83;3.47;;;;;;;18.77;51.94;101233.16;3555580;40;20050;-64
2022/06/01 08:36:23;;;;;;;5.75;4.90;;;;;;;19.01;51.99;101221.03;3557913;40;20064;-65
2022/06/01 08:38:49;;;;;;;5.93;4.45;;;;;;;19.04;50.37;101198.94;3558110;40;20536;-65
2022/06/01 08:41:19;;;;;;;6.13;3.85;;;;;;;19.25;49.65;101224.22;3557619;40;20061;-64
2022/06/01 08:43:58;;;;;;;4.80;4.40;;;;;;;19.23;49.56;101217.19;3558721;40;20139;-64
2022/06/01 08:46:26;;;;;;;10.55;4.47;;;;;;;19.03;50.50;101210.88;3559182;40;20058;-65
2022/06/01 08:49:12;;;;;;;5.85;4.07;;;;;;;18.78;51.85;101215.81;3559937;40;20053;-63
2022/06/01 08:51:37;;;;;;;5.68;3.55;;;;;;;18.93;49.24;101212.69;3558922;40;20049;-65
2022/06/01 08:54:03;;;;;;;4.35;3.45;;;;;;;19.02;48.14;101217.28;3558868;40;20483;-64
2022/06/01 08:56:44;;;;;;;5.35;3.40;;;;;;;18.95;49.36;101229.75;3560085;40;20049;-64
2022/06/01 08:59:37;;;;;;;6.03;3.53;;;;;;;19.02;48.62;101220.88;3559050;40;20648;-64
2022/06/01 09:02:44;;;;;;;3.38;2.85;;;;;;;19.29;49.21;101218.50;3559234;40;20132;-64
2022/06/01 09:05:22;;;;;;;3.75;3.00;;;;;;;19.80;46.92;101231.03;3519926;40;20083;-63
2022/06/01 09:07:54;;;;;;;4.53;3.05;;;;;;;;;;3521630;40;20054;-64
2022/06/01 09:11:04;;;;;;;5.10;3.08;;;;;;;19.69;47.16;101232.00;3544097;40;20061;-63
2022/06/01 09:14:16;;;;;;;3.75;3.00;;;;;;;19.31;47.09;101224.66;3560025;40;20060;-64
2022/06/01 09:16:47;;;;;;;3.97;3.30;;;;;;;19.31;46.64;101238.28;3559244;40;20061;-65
2022/06/01 09:19:22;;;;;;;3.97;2.97;;;;;;;19.50;46.35;101232.84;3561549;40;20073;-63
2022/06/01 09:24:57;;;;;;;4.18;3.10;;;;;;;19.85;45.80;101240.50;3559469;40;20057;-65
2022/06/01 09:27:53;;;;;;;6.10;3.58;;;;;;;19.57;45.79;101235.84;3558465;40;20077;-62
2022/06/01 09:30:31;;;;;;;4.53;4.10;;;;;;;19.17;47.91;101245.88;3556837;40;20706;-65
2022/06/01 09:33:26;;;;;;;4.85;3.95;;;;;;;19.01;49.36;101229.19;3558106;40;20093;-64
2022/06/01 09:36:07;;;;;;;4.22;3.60;;;;;;;19.40;49.20;101234.72;3559900;40;20045;-65
2022/06/01 09:38:47;;;;;;;6.32;3.80;;;;;;;19.51;49.17;101236.47;3558481;40;20058;-64
2022/06/01 09:41:36;;;;;;;4.80;4.15;;;;;;;19.57;47.31;101235.84;3558278;40;20088;-64
2022/06/01 09:44:19;;;;;;;4.78;4.32;;;;;;;19.38;47.53;101248.50;3556988;40;20583;-64
2022/06/01 09:46:54;;;;;;;4.05;3.60;;;;;;;19.12;47.62;101242.69;3558470;40;20049;-63
2022/06/01 09:49:41;;;;;;;4.90;3.70;;;;;;;18.85;47.18;101237.03;3557966;40;20061;-63
2022/06/01 09:52:26;;;;;;;5.78;3.83;;;;;;;18.78;47.44;101229.44;3556566;40;20504;-64
2022/06/01 09:54:56;;;;;;;5.35;3.90;;;;;;;18.64;46.22;101227.03;3557811;40;20089;-64
2022/06/01 09:57:37;;;;;;;8.20;3.90;;;;;;;18.77;47.66;101235.88;3559000;40;20080;-65
2022/06/01 10:06:35;;;;;;;2.45;2.25;;;;;;;18.39;48.97;101254.72;3558056;40;20052;-64
2022/06/01 10:09:11;;;;;;;4.55;2.75;;;;;;;18.16;48.57;101276.63;3556595;40;20073;-64
2022/06/01 10:11:45;;;;;;;2.70;2.50;;;;;;;17.68;49.59;101239.03;3558982;40;20120;-63
2022/06/01 10:14:29;;;;;;;3.92;3.20;;;;;;;17.77;51.31;101280.94;3557783;40;20058;-64
2022/06/01 10:17:19;;;;;;;4.47;3.53;;;;;;;17.45;52.68;101289.06;3556373;40;20054;-64
2022/06/01 10:20:27;;;;;;;5.60;3.95;;;;;;;17.05;55.29;101297.78;3556010;40;20088;-64
2022/06/01 10:23:09;;;;;;;5.95;4.25;;;;;;;16.70;56.05;101302.31;3555933;40;20131;-64
2022/06/01 10:26:15;;;;;;;4.20;3.78;;;;;;;16.30;55.30;101304.63;3556415;40;20081;-64
2022/06/01 10:28:53;;;;;;;5.50;3.58;;;;;;;15.88;58.70;101303.38;3555625;40;20313;-63
2022/06/01 10:31:47;;;;;;;3.35;2.95;;;;;;;15.51;59.91;101300.72;3557469;40;20089;-62
2022/06/01 10:34:40;;;;;;;3.85;3.47;;;;;;;15.26;63.11;101285.44;3557937;40;20049;-64
2022/06/01 10:37:33;;;;;;;4.20;3.75;;;;;;;15.27;64.44;101298.00;3557900;40;20057;-63
2022/06/01 10:40:34;;;;;;;5.57;4.22;;;;;;;15.26;64.85;101290.84;3553085;40;20068;-63
2022/06/01 10:43:21;;;;;;;5.85;3.85;;;;;;;15.29;66.14;101291.50;3558174;40;20053;-63
2022/06/01 10:46:00;;;;;;;4.50;3.47;;;;;;;15.69;68.42;101287.66;3558018;40;20061;-63
2022/06/01 10:48:29;;;;;;;3.20;2.90;;;;;;;16.45;66.37;101292.53;3558312;40;20112;-63
2022/06/01 10:51:33;;;;;;;4.90;3.00;;;;;;;16.88;59.99;101305.44;3556561;40;20049;-63
2022/06/01 10:54:11;;;;;;;3.05;2.70;;;;;;;16.85;57.89;101305.69;3548229;40;20053;-62
2022/06/01 10:56:37;;;;;;;4.20;3.08;;;;;;;16.89;60.47;101306.31;3557265;40;20059;-63
2022/06/01 10:59:12;;;;;;;3.65;2.90;;;;;;;16.93;59.31;101303.19;3558751;40;20073;-63
2022/06/01 11:02:02;;;;;;;3.22;2.92;;;;;;;16.90;57.07;101305.31;3560066;40;20084;-65
2022/06/01 11:05:14;;;;;;;3.20;2.78;;;;;;;16.79;55.92;101295.31;3556507;40;20068;-63
2022/06/01 11:08:01;;;;;;;3.20;2.30;;;;;;;16.59;54.83;101304.19;3558744;40;20147;-66
2022/06/01 11:10:44;;;;;;;3.40;2.30;;;;;;;16.46;55.45;101302.44;3557015;40;20490;-63
2022/06/01 11:13:55;;;;;;;1.75;1.65;;;;;;;16.23;56.66;101300.66;3558500;40;20092;-62
2022/06/01 11:17:09;;;;;;;1.85;1.75;;;;;;;15.91;57.76;101295.00;3559402;40;20049;-62
2022/06/01 11:20:11;;;;;;;2.08;1.98;;;;;;;15.86;58.70;101287.25;3554782;40;20107;-62
2022/06/01 11:22:55;;;;;;;1.60;1.50;;;;;;;15.83;59.22;101257.66;3558488;40;20053;-62
2022/06/01 11:25:34;;;;;;;1.83;1.40;;;;;;;16.39;58.09;101301.16;3558174;40;20060;-62
2022/06/01 11:28:30;;;;;;;1.98;1.50;;;;;;;16.98;57.54;101296.56;3557173;40;20057;-62
2022/06/01 11:31:19;;;;;;;3.35;1.70;;;;;;;17.56;53.81;101302.59;3558373;40;20156;-61
2022/06/01 11:34:11;;;;;;;1.55;1.45;;;;;;;18.31;51.16;101307.13;3559785;40;20057;-63
2022/06/01 11:36:58;;;;;;;2.45;1.30;;;;;;;18.67;47.54;101285.81;3558751;40;20049;-63
2022/06/01 11:39:35;;;;;;;1.48;1.38;;;;;;;18.86;47.41;101309.59;3559857;40;20378;-64
2022/06/01 11:42:31;;;;;;;2.03;1.35;;;;;;;19.09;43.42;101313.81;3559351;40;20473;-65
2022/06/01 11:45:22;;;;;;;1.58;1.48;;;;;;;19.06;43.38;101307.78;3559294;40;20339;-64
2022/06/01 11:48:00;;;;;;;2.10;1.60;;;;;;;19.16;45.63;101322.34;3557894;40;20059;-63
2022/06/01 11:51:06;;;;;;;2.88;1.77;;;;;;;19.28;44.95;101313.03;3559699;40;20093;-64
2022/06/01 11:54:00;;;;;;;2.13;1.92;;;;;;;19.82;44.88;101316.28;3560730;40;20046;-65
2022/06/01 11:56:28;;;;;;;3.03;2.13;;;;;;;20.44;45.23;101304.03;3560761;40;20055;-66
2022/06/01 11:59:27;;;;;;;2.80;1.63;;;;;;;20.98;42.58;101316.09;3557119;40;20127;-66
2022/06/01 12:02:40;;;;;;;2.05;1.85;;;;;;;21.40;43.98;101304.69;3559220;40;20114;-66
2022/06/01 12:05:21;;;;;;;2.05;1.85;;;;;;;21.55;41.12;101303.13;3559127;40;20069;-64
2022/06/01 12:07:55;;;;;;;2.95;2.00;;;;;;;21.48;40.91;101299.31;3558774;40;20061;-65
2022/06/01 12:10:52;;;;;;;3.60;1.90;;;;;;;21.59;41.85;101289.16;3561743;40;20057;-64
2022/06/01 12:13:30;;;;;;;2.13;1.80;;;;;;;21.75;41.67;101292.03;3554230;40;20061;-63
2022/06/01 12:16:32;;;;;;;3.08;2.03;;;;;;;21.42;39.85;101297.19;3561589;40;20288;-63